Time;durP1;ratioP1;P1;durP2;ratioP2;P2;SDS_P1;SDS_P2;PMS_P1;PMS_P2;Temp;Humidity;BMP_temperature;BMP_pressure;BME280_temperature;BME280_humidity;BME280_pressure;Samples;Min_cycle;Max_cycle;Signal;HPM_P1;HPM_P2
2024/01/13 00:00:49;;;;;;;;;;;3.10;99.90;;;;;;4952065;28;19929;-73
2024/01/13 00:03:14;;;;;;;;;;;3.10;99.90;;;;;;5000109;28;21190;-74
2024/01/13 00:05:40;;;;;;;;;;;3.10;99.90;;;;;;4967009;28;19936;-73
2024/01/13 00:08:06;;;;;;;;;;;3.10;99.90;;;;;;5000958;28;19983;-73
2024/01/13 00:10:34;;;;;;;;;;;3.10;99.90;;;;;;4974755;28;19924;-73
2024/01/13 00:13:00;;;;;;;;;;;3.20;99.90;;;;;;5000669;28;19928;-73
2024/01/13 00:15:26;;;;;;;;;;;3.10;99.90;;;;;;4988454;28;19925;-73
2024/01/13 00:17:52;;;;;;;;;;;3.20;99.90;;;;;;4987567;28;20476;-75
2024/01/13 00:20:18;;;;;;;;;;;3.10;99.90;;;;;;4987648;28;19940;-74
2024/01/13 00:22:47;;;;;;;;;;;3.00;99.90;;;;;;5018633;28;20105;-74
2024/01/13 00:25:14;;;;;;;;;;;3.10;99.90;;;;;;4963641;28;19939;-74
2024/01/13 00:27:41;;;;;;;;;;;3.10;99.90;;;;;;4999948;28;20648;-74
2024/01/13 00:30:07;;;;;;;;;;;3.20;99.90;;;;;;4981140;28;19925;-74
2024/01/13 00:32:33;;;;;;;;;;;3.10;99.90;;;;;;5005333;28;19932;-74
2024/01/13 00:34:59;;;;;;;;;;;3.10;99.90;;;;;;4982578;28;19928;-74
2024/01/13 00:37:24;;;;;;;;;;;3.10;99.90;;;;;;4988648;28;19991;-75
2024/01/13 00:39:51;;;;;;;;;;;3.20;99.90;;;;;;4974590;28;21151;-74
2024/01/13 00:42:16;;;;;;;;;;;3.20;99.90;;;;;;4986100;28;19930;-73
2024/01/13 00:44:42;;;;;;;;;;;3.20;99.90;;;;;;4971898;28;20071;-73
2024/01/13 00:47:08;;;;;;;;;;;3.10;99.90;;;;;;4996401;28;19935;-73
2024/01/13 00:49:34;;;;;;;;;;;3.10;99.90;;;;;;4975798;28;20550;-73
2024/01/13 00:52:00;;;;;;;;;;;3.10;99.90;;;;;;5008066;28;19936;-73
2024/01/13 00:54:26;;;;;;;;;;;3.10;99.90;;;;;;4976123;28;20634;-74
2024/01/13 00:56:53;;;;;;;;;;;3.10;99.90;;;;;;4985446;28;19925;-74
2024/01/13 00:59:19;;;;;;;;;;;3.10;99.90;;;;;;4981975;28;19932;-74
2024/01/13 01:01:45;;;;;;;;;;;3.20;99.90;;;;;;5013018;28;19925;-75
2024/01/13 01:04:11;;;;;;;;;;;3.20;99.90;;;;;;4978529;28;19924;-75
2024/01/13 01:06:37;;;;;;;;;;;3.10;99.90;;;;;;4994055;28;20410;-75
2024/01/13 01:09:03;;;;;;;;;;;3.10;99.90;;;;;;4939738;28;19924;-74
2024/01/13 01:11:28;;;;;;;;;;;3.00;99.90;;;;;;4994866;28;20387;-74
2024/01/13 01:13:55;;;;;;;;;;;3.10;99.90;;;;;;4972403;28;19925;-75
2024/01/13 01:16:21;;;;;;;;;;;3.10;99.90;;;;;;4965140;28;19924;-74
2024/01/13 01:18:47;;;;;;;;;;;3.10;99.90;;;;;;4960407;28;19999;-75
2024/01/13 01:21:14;;;;;;;;;;;3.10;99.90;;;;;;4996962;28;19924;-75
2024/01/13 01:23:39;;;;;;;;;;;3.20;99.90;;;;;;4979737;28;19936;-75
2024/01/13 01:26:06;;;;;;;;;;;3.10;99.90;;;;;;5021767;28;19928;-76
2024/01/13 01:28:32;;;;;;;;;;;3.20;99.90;;;;;;4979388;28;20214;-74
2024/01/13 01:30:58;;;;;;;;;;;3.20;99.90;;;;;;5012346;28;20599;-74
2024/01/13 01:33:23;;;;;;;;;;;3.10;99.90;;;;;;5018053;28;19925;-74
2024/01/13 01:35:49;;;;;;;;;;;3.20;99.90;;;;;;4986162;28;20012;-74
2024/01/13 01:38:15;;;;;;;;;;;3.20;99.90;;;;;;5001502;28;19929;-74
2024/01/13 01:40:41;;;;;;;;;;;3.20;99.90;;;;;;4983397;28;19924;-73
2024/01/13 01:43:07;;;;;;;;;;;3.10;99.90;;;;;;5001201;28;20418;-74
2024/01/13 01:45:33;;;;;;;;;;;3.20;99.90;;;;;;4952364;28;19932;-73
2024/01/13 01:48:01;;;;;;;;;;;3.20;99.90;;;;;;4980413;28;19932;-73
2024/01/13 01:50:27;;;;;;;;;;;3.20;99.90;;;;;;4979520;28;19932;-73
2024/01/13 01:52:53;;;;;;;;;;;3.20;99.90;;;;;;5003305;28;19963;-74
2024/01/13 01:55:19;;;;;;;;;;;3.20;99.90;;;;;;4972049;28;19925;-74
2024/01/13 01:57:45;;;;;;;;;;;3.20;99.90;;;;;;4981798;28;19925;-74
2024/01/13 02:00:11;;;;;;;;;;;3.20;99.90;;;;;;4971522;28;19983;-74
2024/01/13 02:02:37;;;;;;;;;;;3.20;99.90;;;;;;4981963;28;21081;-73
2024/01/13 02:05:03;;;;;;;;;;;3.20;99.90;;;;;;4949228;28;19935;-74
2024/01/13 02:07:31;;;;;;;;;;;3.20;99.90;;;;;;4983223;28;20012;-74
2024/01/13 02:09:57;;;;;;;;;;;3.20;99.90;;;;;;4966191;28;19924;-73
2024/01/13 02:12:23;;;;;;;;;;;3.20;99.90;;;;;;4972825;28;20645;-73
2024/01/13 02:14:50;;;;;;;;;;;3.20;99.90;;;;;;4960523;28;19925;-74
2024/01/13 02:17:16;;;;;;;;;;;3.20;99.90;;;;;;4965152;28;19932;-73
2024/01/13 02:19:42;;;;;;;;;;;3.20;99.90;;;;;;4974422;28;19924;-73
2024/01/13 02:22:08;;;;;;;;;;;3.20;99.90;;;;;;5016210;28;19928;-73
2024/01/13 02:24:34;;;;;;;;;;;3.30;99.90;;;;;;4985419;28;19925;-73
2024/01/13 02:27:00;;;;;;;;;;;3.30;99.90;;;;;;4979066;28;20331;-73
2024/01/13 02:29:26;;;;;;;;;;;3.20;99.90;;;;;;4958369;28;19928;-74
2024/01/13 02:31:52;;;;;;;;;;;3.20;99.90;;;;;;4985952;28;19947;-75
2024/01/13 02:34:17;;;;;;;;;;;3.20;99.90;;;;;;4990029;28;20333;-75
2024/01/13 02:36:43;;;;;;;;;;;3.20;99.90;;;;;;4983455;28;19925;-74
2024/01/13 02:39:09;;;;;;;;;;;3.20;99.90;;;;;;4973662;28;20432;-74
2024/01/13 02:41:35;;;;;;;;;;;3.20;99.90;;;;;;4984312;28;19925;-74
2024/01/13 02:44:01;;;;;;;;;;;3.20;99.90;;;;;;4974251;28;19951;-75
2024/01/13 02:46:27;;;;;;;;;;;3.20;99.90;;;;;;5012583;28;20935;-74
2024/01/13 02:48:54;;;;;;;;;;;3.20;99.90;;;;;;4972605;28;19928;-74
2024/01/13 02:51:20;;;;;;;;;;;3.10;99.90;;;;;;4991444;28;19928;-74
2024/01/13 02:53:46;;;;;;;;;;;3.10;99.90;;;;;;4972684;28;20435;-74
2024/01/13 02:56:12;;;;;;;;;;;3.20;99.90;;;;;;5011946;28;19925;-74
2024/01/13 02:58:38;;;;;;;;;;;3.20;99.90;;;;;;4955028;28;19925;-73
2024/01/13 03:01:06;;;;;;;;;;;3.10;99.90;;;;;;4996649;28;19925;-73
2024/01/13 03:03:35;;;;;;;;;;;3.10;99.90;;;;;;4971845;28;20399;-73
2024/01/13 03:06:03;;;;;;;;;;;3.10;99.90;;;;;;4996961;28;19951;-74
2024/01/13 03:08:29;;;;;;;;;;;3.20;99.90;;;;;;4986761;28;20505;-73
2024/01/13 03:10:55;;;;;;;;;;;3.20;99.90;;;;;;4998950;28;19925;-74
2024/01/13 03:13:21;;;;;;;;;;;3.20;99.90;;;;;;4999730;28;20555;-74
2024/01/13 03:15:47;;;;;;;;;;;3.10;99.90;;;;;;4966626;28;19929;-72
2024/01/13 03:18:13;;;;;;;;;;;3.20;99.90;;;;;;4998077;28;19931;-74
2024/01/13 03:20:39;;;;;;;;;;;3.20;99.90;;;;;;4982433;28;20479;-74
2024/01/13 03:23:04;;;;;;;;;;;3.20;99.90;;;;;;4980915;28;19928;-75
2024/01/13 03:25:30;;;;;;;;;;;3.20;99.90;;;;;;4976464;28;19929;-75
2024/01/13 03:27:56;;;;;;;;;;;3.20;99.90;;;;;;4996205;28;19931;-75
2024/01/13 03:30:22;;;;;;;;;;;3.20;99.90;;;;;;4976209;28;19928;-74
2024/01/13 03:32:48;;;;;;;;;;;3.20;99.90;;;;;;4982376;28;19925;-75
2024/01/13 03:35:14;;;;;;;;;;;3.20;99.90;;;;;;4966364;28;19925;-74
2024/01/13 03:37:40;;;;;;;;;;;3.20;99.90;;;;;;5016637;28;19925;-75
2024/01/13 03:40:06;;;;;;;;;;;3.20;99.90;;;;;;4961958;28;19924;-75
2024/01/13 03:42:32;;;;;;;;;;;3.20;99.90;;;;;;4984369;28;19929;-75
2024/01/13 03:44:58;;;;;;;;;;;3.10;99.90;;;;;;4981685;28;19955;-75
2024/01/13 03:47:24;;;;;;;;;;;3.20;99.90;;;;;;4979182;28;19940;-75
2024/01/13 03:49:50;;;;;;;;;;;3.20;99.90;;;;;;4982369;28;19968;-76
2024/01/13 03:52:16;;;;;;;;;;;3.10;99.90;;;;;;4979224;28;20258;-76
2024/01/13 03:54:41;;;;;;;;;;;3.30;99.90;;;;;;4979627;28;20529;-75
2024/01/13 03:57:07;;;;;;;;;;;3.10;99.90;;;;;;4985284;28;19972;-75
2024/01/13 03:59:33;;;;;;;;;;;3.20;99.90;;;;;;4980025;28;20511;-76
2024/01/13 04:01:59;;;;;;;;;;;3.30;99.90;;;;;;5006346;28;20531;-76
2024/01/13 04:04:25;;;;;;;;;;;3.20;99.90;;;;;;4983361;28;20543;-76
2024/01/13 04:06:51;;;;;;;;;;;3.20;99.90;;;;;;5010264;28;19928;-76
2024/01/13 04:09:17;;;;;;;;;;;3.20;99.90;;;;;;4952161;28;20021;-76
2024/01/13 04:11:43;;;;;;;;;;;3.10;99.90;;;;;;4995066;28;19931;-76
2024/01/13 04:14:09;;;;;;;;;;;3.10;99.90;;;;;;4951955;28;20283;-77
2024/01/13 04:16:35;;;;;;;;;;;3.20;99.90;;;;;;4988231;28;19924;-76
2024/01/13 04:19:01;;;;;;;;;;;3.20;99.90;;;;;;4966785;28;19924;-76
2024/01/13 04:21:27;;;;;;;;;;;3.20;99.90;;;;;;4967589;28;19924;-76
2024/01/13 04:23:53;;;;;;;;;;;3.20;99.90;;;;;;4982468;28;21071;-76
2024/01/13 04:26:22;;;;;;;;;;;3.10;99.90;;;;;;5009171;28;21007;-75
2024/01/13 04:28:48;;;;;;;;;;;3.10;99.90;;;;;;4986982;28;19924;-75
2024/01/13 04:31:14;;;;;;;;;;;3.20;99.90;;;;;;4992914;28;20011;-75
2024/01/13 04:33:40;;;;;;;;;;;3.20;99.90;;;;;;4933922;28;19925;-74
2024/01/13 04:36:06;;;;;;;;;;;3.20;99.90;;;;;;4982118;28;19925;-75
2024/01/13 04:38:31;;;;;;;;;;;3.20;99.90;;;;;;4992459;28;21219;-74
2024/01/13 04:40:57;;;;;;;;;;;3.20;99.90;;;;;;5011229;28;19929;-75
2024/01/13 04:43:23;;;;;;;;;;;3.10;99.90;;;;;;5000050;28;20293;-75
2024/01/13 04:45:49;;;;;;;;;;;3.20;99.90;;;;;;4979584;28;19924;-76
2024/01/13 04:48:17;;;;;;;;;;;3.20;99.90;;;;;;4998138;28;19925;-75
2024/01/13 04:50:43;;;;;;;;;;;3.10;99.90;;;;;;4964668;28;19924;-75
2024/01/13 04:53:09;;;;;;;;;;;3.20;99.90;;;;;;5012988;28;20296;-76
2024/01/13 04:55:35;;;;;;;;;;;3.20;99.90;;;;;;4976783;28;20019;-75
2024/01/13 04:58:01;;;;;;;;;;;3.20;99.90;;;;;;5019250;28;20403;-75
2024/01/13 05:00:27;;;;;;;;;;;3.20;99.90;;;;;;4985940;28;19924;-75
2024/01/13 05:02:53;;;;;;;;;;;3.20;99.90;;;;;;4984250;28;19925;-75
2024/01/13 05:05:19;;;;;;;;;;;3.20;99.90;;;;;;4950777;28;20387;-75
2024/01/13 05:07:45;;;;;;;;;;;3.10;99.90;;;;;;4978607;28;19936;-75
2024/01/13 05:10:11;;;;;;;;;;;3.20;99.90;;;;;;4954475;28;20025;-75
2024/01/13 05:12:37;;;;;;;;;;;3.20;99.90;;;;;;5008402;28;19924;-74
2024/01/13 05:15:03;;;;;;;;;;;3.10;99.90;;;;;;4984404;28;19925;-74
2024/01/13 05:17:29;;;;;;;;;;;3.20;99.90;;;;;;4983457;28;19940;-75
2024/01/13 05:19:55;;;;;;;;;;;3.20;99.90;;;;;;4983902;28;19924;-74
2024/01/13 05:22:21;;;;;;;;;;;3.10;99.90;;;;;;4972003;28;19928;-73
2024/01/13 05:24:47;;;;;;;;;;;3.20;99.90;;;;;;4951519;28;19932;-74
2024/01/13 05:27:14;;;;;;;;;;;3.20;99.90;;;;;;4974370;28;19933;-74
2024/01/13 05:29:40;;;;;;;;;;;3.10;99.90;;;;;;4983552;28;20043;-74
2024/01/13 05:32:06;;;;;;;;;;;3.20;99.90;;;;;;5004406;28;20051;-74
2024/01/13 05:34:32;;;;;;;;;;;3.20;99.90;;;;;;4982518;28;20661;-74
2024/01/13 05:36:58;;;;;;;;;;;3.20;99.90;;;;;;4974102;28;19939;-74
2024/01/13 05:39:23;;;;;;;;;;;3.20;99.90;;;;;;4979796;28;20044;-73
2024/01/13 05:41:49;;;;;;;;;;;3.20;99.90;;;;;;5007959;28;19924;-74
2024/01/13 05:44:15;;;;;;;;;;;3.10;99.90;;;;;;4956242;28;19924;-73
2024/01/13 05:46:41;;;;;;;;;;;3.20;99.90;;;;;;4987575;28;21182;-74
2024/01/13 05:49:08;;;;;;;;;;;3.20;99.90;;;;;;4949805;28;19936;-75
2024/01/13 05:51:35;;;;;;;;;;;3.10;99.90;;;;;;4999014;28;20753;-74
2024/01/13 05:54:01;;;;;;;;;;;3.20;99.90;;;;;;4955374;28;19932;-74
2024/01/13 05:56:27;;;;;;;;;;;3.10;99.90;;;;;;4996199;28;20375;-72
2024/01/13 05:58:53;;;;;;;;;;;3.20;99.90;;;;;;4989409;28;20471;-73
2024/01/13 06:01:19;;;;;;;;;;;3.10;99.90;;;;;;4986416;28;19925;-72
2024/01/13 06:03:44;;;;;;;;;;;3.10;99.90;;;;;;4986353;28;20586;-72
2024/01/13 06:06:10;;;;;;;;;;;3.10;99.90;;;;;;4992500;28;20581;-73
2024/01/13 06:08:36;;;;;;;;;;;3.10;99.90;;;;;;4952349;28;19931;-73
2024/01/13 06:11:02;;;;;;;;;;;3.10;99.90;;;;;;4994010;28;21075;-73
2024/01/13 06:13:31;;;;;;;;;;;3.10;99.90;;;;;;4971251;28;19935;-73
2024/01/13 06:15:57;;;;;;;;;;;3.10;99.90;;;;;;4992155;28;19929;-73
2024/01/13 06:18:23;;;;;;;;;;;3.10;99.90;;;;;;4968343;28;19925;-72
2024/01/13 06:20:49;;;;;;;;;;;3.10;99.90;;;;;;4968564;28;19925;-72
2024/01/13 06:23:15;;;;;;;;;;;3.10;99.90;;;;;;5001433;28;19929;-72
2024/01/13 06:25:41;;;;;;;;;;;3.20;99.90;;;;;;4971146;28;19924;-71
2024/01/13 06:28:06;;;;;;;;;;;3.00;99.90;;;;;;4981605;28;19932;-72
2024/01/13 06:30:32;;;;;;;;;;;3.10;99.90;;;;;;4968671;28;19979;-72
2024/01/13 06:32:59;;;;;;;;;;;3.10;99.90;;;;;;4983227;28;19929;-72
2024/01/13 06:35:24;;;;;;;;;;;3.10;99.90;;;;;;4986818;28;19935;-72
2024/01/13 06:37:51;;;;;;;;;;;3.10;99.90;;;;;;5000543;28;19925;-73
2024/01/13 06:40:17;;;;;;;;;;;3.10;99.90;;;;;;4982976;28;20545;-73
2024/01/13 06:42:43;;;;;;;;;;;3.20;99.90;;;;;;4999392;28;19935;-73
2024/01/13 06:45:09;;;;;;;;;;;3.20;99.90;;;;;;4980574;28;19924;-72
2024/01/13 06:47:35;;;;;;;;;;;3.20;99.90;;;;;;4982194;28;19928;-72
2024/01/13 06:50:01;;;;;;;;;;;3.20;99.90;;;;;;4968176;28;20080;-73
2024/01/13 06:52:27;;;;;;;;;;;3.10;99.90;;;;;;4998301;28;19924;-72
2024/01/13 06:54:52;;;;;;;;;;;3.10;99.90;;;;;;4982048;28;19998;-72
2024/01/13 06:57:20;;;;;;;;;;;3.10;99.90;;;;;;5001416;28;20023;-72
2024/01/13 06:59:46;;;;;;;;;;;3.20;99.90;;;;;;4965920;28;19935;-72
2024/01/13 07:02:12;;;;;;;;;;;3.20;99.90;;;;;;4987930;28;19929;-72
2024/01/13 07:04:38;;;;;;;;;;;3.20;99.90;;;;;;4969964;28;19925;-72
2024/01/13 07:07:05;;;;;;;;;;;3.20;99.90;;;;;;4993938;28;19933;-72
2024/01/13 07:09:31;;;;;;;;;;;3.20;99.90;;;;;;4961926;28;19932;-71
2024/01/13 07:11:57;;;;;;;;;;;3.10;99.90;;;;;;5005018;28;21309;-71
2024/01/13 07:14:23;;;;;;;;;;;3.20;99.90;;;;;;4957420;28;19972;-72
2024/01/13 07:16:48;;;;;;;;;;;3.10;99.90;;;;;;5001635;28;19925;-72
2024/01/13 07:19:15;;;;;;;;;;;3.20;99.90;;;;;;4977720;28;19924;-72
2024/01/13 07:21:41;;;;;;;;;;;3.10;99.90;;;;;;5010008;28;19925;-72
2024/01/13 07:24:09;;;;;;;;;;;3.20;99.90;;;;;;4968221;28;19924;-72
2024/01/13 07:26:38;;;;;;;;;;;3.20;99.90;;;;;;4974648;28;19929;-72
2024/01/13 07:29:04;;;;;;;;;;;3.10;99.90;;;;;;4954153;28;21339;-72
2024/01/13 07:31:30;;;;;;;;;;;3.10;99.90;;;;;;4973002;28;19924;-71
2024/01/13 07:33:56;;;;;;;;;;;3.10;99.90;;;;;;4970421;28;20614;-72
2024/01/13 07:36:22;;;;;;;;;;;3.20;99.90;;;;;;4994610;28;19972;-73
2024/01/13 07:38:48;;;;;;;;;;;3.20;99.90;;;;;;4954451;28;19924;-73
2024/01/13 07:41:14;;;;;;;;;;;3.20;99.90;;;;;;5012689;28;20409;-72
2024/01/13 07:43:39;;;;;;;;;;;3.20;99.90;;;;;;4986635;28;19932;-72
2024/01/13 07:46:05;;;;;;;;;;;3.20;99.90;;;;;;4996000;28;19924;-72
2024/01/13 07:48:31;;;;;;;;;;;3.30;99.90;;;;;;4975634;28;19929;-72
2024/01/13 07:50:57;;;;;;;;;;;3.20;99.90;;;;;;4995510;28;20923;-72
2024/01/13 07:53:23;;;;;;;;;;;3.20;99.90;;;;;;4981356;28;19937;-72
2024/01/13 07:55:49;;;;;;;;;;;3.30;99.90;;;;;;4980749;28;21203;-72
2024/01/13 07:58:15;;;;;;;;;;;3.30;99.90;;;;;;5017503;28;19925;-72
2024/01/13 08:00:41;;;;;;;;;;;3.40;99.90;;;;;;4971950;28;21171;-72
2024/01/13 08:03:07;;;;;;;;;;;3.30;99.90;;;;;;5000598;28;20668;-72
2024/01/13 08:05:33;;;;;;;;;;;3.30;99.90;;;;;;4976945;28;19929;-72
2024/01/13 08:08:01;;;;;;;;;;;3.30;99.90;;;;;;5000101;28;20619;-71
2024/01/13 08:10:27;;;;;;;;;;;3.40;99.90;;;;;;4965419;28;19936;-73
2024/01/13 08:12:53;;;;;;;;;;;3.40;99.90;;;;;;4997832;28;19928;-72
2024/01/13 08:15:19;;;;;;;;;;;3.30;99.90;;;;;;4969660;28;20662;-72
2024/01/13 08:17:44;;;;;;;;;;;3.40;99.90;;;;;;5002476;28;19932;-71
2024/01/13 08:20:13;;;;;;;;;;;3.40;99.90;;;;;;4985301;28;20929;-72
2024/01/13 08:22:39;;;;;;;;;;;3.40;99.90;;;;;;4964623;28;19932;-71
2024/01/13 08:25:06;;;;;;;;;;;3.40;99.90;;;;;;4982972;28;20457;-72
2024/01/13 08:27:33;;;;;;;;;;;3.40;99.90;;;;;;4999484;28;19944;-72
2024/01/13 08:29:59;;;;;;;;;;;3.50;99.90;;;;;;4959584;28;19929;-70
2024/01/13 08:32:25;;;;;;;;;;;3.40;99.90;;;;;;4997581;28;20419;-70
2024/01/13 08:34:50;;;;;;;;;;;3.40;99.90;;;;;;4984073;28;19925;-73
2024/01/13 08:37:16;;;;;;;;;;;3.50;99.90;;;;;;5000777;28;19951;-73
2024/01/13 08:39:42;;;;;;;;;;;3.40;99.90;;;;;;4981332;28;19934;-73
2024/01/13 08:42:08;;;;;;;;;;;3.50;99.90;;;;;;4989268;28;19951;-72
2024/01/13 08:44:34;;;;;;;;;;;3.40;99.90;;;;;;4981691;28;20330;-72
2024/01/13 08:47:00;;;;;;;;;;;3.50;99.90;;;;;;5001576;28;19929;-72
2024/01/13 08:49:27;;;;;;;;;;;3.50;99.90;;;;;;4979736;28;19928;-71
2024/01/13 08:51:52;;;;;;;;;;;3.50;99.90;;;;;;5002935;28;19928;-71
2024/01/13 08:54:18;;;;;;;;;;;3.40;99.90;;;;;;4957445;28;20688;-72
2024/01/13 08:56:44;;;;;;;;;;;3.50;99.90;;;;;;4993816;28;20015;-72
2024/01/13 08:59:10;;;;;;;;;;;3.50;99.90;;;;;;4981631;28;20356;-72
2024/01/13 09:01:36;;;;;;;;;;;3.40;99.90;;;;;;5003042;28;19928;-73
2024/01/13 09:04:02;;;;;;;;;;;3.50;99.90;;;;;;4944885;28;19929;-73
2024/01/13 09:06:28;;;;;;;;;;;3.40;99.90;;;;;;5008405;28;20733;-73
2024/01/13 09:08:54;;;;;;;;;;;3.50;99.90;;;;;;4952455;28;21067;-73
2024/01/13 09:11:20;;;;;;;;;;;3.40;99.90;;;;;;4979790;28;19924;-73
2024/01/13 09:13:46;;;;;;;;;;;3.50;99.90;;;;;;4975159;28;19929;-73
2024/01/13 09:16:12;;;;;;;;;;;3.50;99.90;;;;;;5014734;28;19925;-73
2024/01/13 09:18:38;;;;;;;;;;;3.50;99.90;;;;;;4954300;28;20173;-72
2024/01/13 09:21:04;;;;;;;;;;;3.50;99.90;;;;;;5000589;28;19931;-72
2024/01/13 09:23:30;;;;;;;;;;;3.50;99.90;;;;;;4986873;28;20390;-71
2024/01/13 09:25:56;;;;;;;;;;;3.40;99.90;;;;;;4987619;28;19931;-72
2024/01/13 09:28:21;;;;;;;;;;;3.50;99.90;;;;;;4982894;28;20526;-72
2024/01/13 09:30:47;;;;;;;;;;;3.50;99.90;;;;;;4985446;28;19960;-72
2024/01/13 09:33:13;;;;;;;;;;;3.50;99.90;;;;;;4983870;28;19925;-73
2024/01/13 09:35:40;;;;;;;;;;;3.50;99.90;;;;;;4981131;28;19924;-71
2024/01/13 09:38:06;;;;;;;;;;;3.50;99.90;;;;;;5021636;28;19979;-72
2024/01/13 09:40:32;;;;;;;;;;;3.50;99.90;;;;;;4982562;28;20468;-73
2024/01/13 09:43:08;;;;;;;;;;;3.50;99.90;;;;;;4985736;28;20379;-72
2024/01/13 09:45:35;;;;;;;;;;;3.50;99.90;;;;;;4965459;28;19932;-73
2024/01/13 09:48:03;;;;;;;;;;;3.50;99.90;;;;;;5001832;28;20849;-73
2024/01/13 09:50:29;;;;;;;;;;;3.50;99.90;;;;;;4966403;28;21238;-73
2024/01/13 09:52:55;;;;;;;;;;;3.50;99.90;;;;;;5003354;28;20394;-73
2024/01/13 09:55:22;;;;;;;;;;;3.60;99.90;;;;;;4974035;28;20070;-73
2024/01/13 09:57:48;;;;;;;;;;;3.50;99.90;;;;;;4985817;28;19928;-75
2024/01/13 10:00:14;;;;;;;;;;;3.60;99.90;;;;;;4985206;28;19929;-72
2024/01/13 10:02:40;;;;;;;;;;;3.70;99.90;;;;;;5005849;28;19934;-73
2024/01/13 10:05:06;;;;;;;;;;;3.70;99.90;;;;;;4954718;28;21080;-73
2024/01/13 10:07:34;;;;;;;;;;;3.70;99.90;;;;;;4980524;28;19933;-73
2024/01/13 10:10:01;;;;;;;;;;;3.70;99.90;;;;;;4985592;28;19932;-73
2024/01/13 10:12:27;;;;;;;;;;;3.70;99.90;;;;;;4981841;28;19925;-73
2024/01/13 10:14:52;;;;;;;;;;;3.80;99.90;;;;;;4967711;28;19925;-73
2024/01/13 10:17:18;;;;;;;;;;;3.80;99.90;;;;;;5000257;28;19935;-72
2024/01/13 10:19:45;;;;;;;;;;;3.70;99.90;;;;;;4973074;28;19939;-72
2024/01/13 10:22:11;;;;;;;;;;;3.80;99.90;;;;;;4976627;28;21078;-73
2024/01/13 10:24:37;;;;;;;;;;;3.80;99.90;;;;;;4953116;28;20011;-73
2024/01/13 10:27:09;;;;;;;;;;;3.80;99.90;;;;;;5010708;28;20954;-73
2024/01/13 10:29:35;;;;;;;;;;;3.90;99.90;;;;;;4950372;28;19925;-73
2024/01/13 10:32:04;;;;;;;;;;;3.80;99.90;;;;;;4980369;28;20302;-73
2024/01/13 10:34:30;;;;;;;;;;;3.80;99.90;;;;;;4959409;28;20004;-72
2024/01/13 10:37:13;;;;;;;;;;;3.90;99.90;;;;;;5010983;28;20387;-73
2024/01/13 10:39:40;;;;;;;;;;;3.80;99.90;;;;;;4978456;28;20994;-73
2024/01/13 10:42:08;;;;;;;;;;;3.90;99.90;;;;;;5012137;28;19976;-73
2024/01/13 10:44:39;;;;;;;;;;;3.90;99.90;;;;;;4981365;28;21158;-73
2024/01/13 10:47:07;;;;;;;;;;;3.90;99.90;;;;;;5002105;28;19928;-72
2024/01/13 10:49:33;;;;;;;;;;;3.90;99.90;;;;;;4977310;28;19936;-72
2024/01/13 10:51:59;;;;;;;;;;;3.90;99.90;;;;;;4994677;28;19929;-73
2024/01/13 10:54:27;;;;;;;;;;;3.90;99.90;;;;;;4956332;28;19929;-72
2024/01/13 10:56:54;;;;;;;;;;;3.90;99.90;;;;;;4983835;28;19929;-72
2024/01/13 10:59:21;;;;;;;;;;;3.90;99.90;;;;;;4980690;28;19935;-72
2024/01/13 11:01:48;;;;;;;;;;;3.90;99.90;;;;;;5010127;28;19931;-72
2024/01/13 11:04:14;;;;;;;;;;;4.00;99.90;;;;;;4965255;28;19984;-72
2024/01/13 11:06:41;;;;;;;;;;;4.00;99.90;;;;;;4987871;28;19925;-73
2024/01/13 11:09:09;;;;;;;;;;;4.00;99.90;;;;;;4977353;28;19935;-73
2024/01/13 11:11:38;;;;;;;;;;;3.90;99.90;;;;;;4992592;28;19925;-73
2024/01/13 11:14:14;;;;;;;;;;;4.00;99.90;;;;;;4969808;28;19928;-72
2024/01/13 11:16:44;;;;;;;;;;;4.00;99.90;;;;;;4999187;28;20025;-73
2024/01/13 11:19:10;;;;;;;;;;;4.00;99.90;;;;;;4977833;28;20415;-73
2024/01/13 11:21:36;;;;;;;;;;;4.00;99.90;;;;;;4989649;28;19936;-72
2024/01/13 11:24:10;;;;;;;;;;;4.00;99.90;;;;;;4980280;28;20433;-72
2024/01/13 11:26:37;;;;;;;;;;;4.00;99.90;;;;;;5002882;28;19925;-73
2024/01/13 11:29:24;;;;;;;;;;;4.00;99.90;;;;;;4974200;28;19928;-72
2024/01/13 11:31:57;;;;;;;;;;;4.00;99.90;;;;;;4987640;28;21039;-72
2024/01/13 11:34:23;;;;;;;;;;;4.00;99.90;;;;;;4975564;28;20544;-72
2024/01/13 11:36:50;;;;;;;;;;;4.00;99.90;;;;;;4990487;28;20040;-72
2024/01/13 11:39:19;;;;;;;;;;;4.10;99.90;;;;;;4976916;28;20694;-72
2024/01/13 11:41:54;;;;;;;;;;;4.00;99.90;;;;;;5007074;28;20004;-73
2024/01/13 11:44:30;;;;;;;;;;;4.10;99.90;;;;;;4970052;28;19932;-72
2024/01/13 11:46:59;;;;;;;;;;;4.10;99.90;;;;;;4991503;28;19924;-73
2024/01/13 11:49:32;;;;;;;;;;;4.10;99.90;;;;;;4957743;28;19925;-73
2024/01/13 11:51:58;;;;;;;;;;;4.20;99.90;;;;;;4987553;28;19925;-73
2024/01/13 11:54:25;;;;;;;;;;;4.30;99.90;;;;;;4951070;28;19944;-73
2024/01/13 11:56:51;;;;;;;;;;;4.30;99.90;;;;;;4982400;28;20405;-73
2024/01/13 11:59:18;;;;;;;;;;;4.30;99.90;;;;;;4976975;28;19971;-73
2024/01/13 12:01:44;;;;;;;;;;;4.30;99.90;;;;;;4990989;28;21090;-73
2024/01/13 12:04:11;;;;;;;;;;;4.30;99.90;;;;;;4980520;28;19936;-73
2024/01/13 12:06:37;;;;;;;;;;;4.30;99.90;;;;;;5011017;28;19924;-73
2024/01/13 12:09:03;;;;;;;;;;;4.30;99.90;;;;;;4986864;28;20227;-74
2024/01/13 12:11:29;;;;;;;;;;;4.30;99.90;;;;;;5001542;28;19940;-73
2024/01/13 12:13:55;;;;;;;;;;;4.30;99.90;;;;;;4969287;28;20505;-73
2024/01/13 12:16:21;;;;;;;;;;;4.40;99.90;;;;;;5004151;28;19941;-72
2024/01/13 12:18:47;;;;;;;;;;;4.30;99.90;;;;;;4990105;28;19938;-72
2024/01/13 12:21:14;;;;;;;;;;;4.40;99.90;;;;;;4999145;28;19925;-72
2024/01/13 12:23:41;;;;;;;;;;;4.40;99.90;;;;;;4956027;28;19925;-73
2024/01/13 12:26:07;;;;;;;;;;;4.40;99.90;;;;;;5012903;28;19929;-71
2024/01/13 12:28:33;;;;;;;;;;;4.40;99.90;;;;;;4988438;28;19939;-72
2024/01/13 12:31:03;;;;;;;;;;;4.40;99.90;;;;;;5012802;28;19924;-73
2024/01/13 12:33:30;;;;;;;;;;;4.40;99.90;;;;;;4972188;28;19924;-72
2024/01/13 12:36:00;;;;;;;;;;;4.30;99.90;;;;;;4987375;28;19947;-73
2024/01/13 12:38:29;;;;;;;;;;;4.30;99.90;;;;;;5002489;28;19929;-72
2024/01/13 12:40:57;;;;;;;;;;;4.30;99.90;;;;;;4969681;28;20270;-73
2024/01/13 12:43:23;;;;;;;;;;;4.30;99.90;;;;;;5002731;28;19924;-73
2024/01/13 12:45:49;;;;;;;;;;;4.40;99.90;;;;;;4983393;28;19925;-73
2024/01/13 12:48:18;;;;;;;;;;;4.40;99.90;;;;;;5002706;28;19929;-73
2024/01/13 12:50:44;;;;;;;;;;;4.40;99.90;;;;;;4985068;28;20035;-73
2024/01/13 12:53:13;;;;;;;;;;;4.40;99.90;;;;;;5000225;28;20419;-73
2024/01/13 12:55:39;;;;;;;;;;;4.40;99.90;;;;;;4982511;28;19928;-72
2024/01/13 12:58:05;;;;;;;;;;;4.40;99.90;;;;;;5019360;28;19931;-72
2024/01/13 13:00:34;;;;;;;;;;;4.40;99.90;;;;;;4982256;28;19925;-73
2024/01/13 13:03:00;;;;;;;;;;;4.30;99.90;;;;;;5019368;28;20425;-72
2024/01/13 13:05:26;;;;;;;;;;;4.40;99.90;;;;;;4950885;28;19929;-73
2024/01/13 13:07:52;;;;;;;;;;;4.30;99.90;;;;;;5002126;28;20044;-73
2024/01/13 13:10:20;;;;;;;;;;;4.40;99.90;;;;;;4959178;28;19931;-73
2024/01/13 13:12:47;;;;;;;;;;;4.40;99.90;;;;;;4986203;28;19924;-72
2024/01/13 13:15:13;;;;;;;;;;;4.50;99.90;;;;;;4986522;28;20131;-73
2024/01/13 13:17:40;;;;;;;;;;;4.50;99.90;;;;;;5004780;28;19955;-73
2024/01/13 13:20:10;;;;;;;;;;;4.50;99.90;;;;;;4978154;28;20052;-73
2024/01/13 13:22:37;;;;;;;;;;;4.50;99.90;;;;;;4985937;28;19925;-73
2024/01/13 13:25:06;;;;;;;;;;;4.60;99.90;;;;;;4973152;28;19931;-73
2024/01/13 13:27:33;;;;;;;;;;;4.60;99.90;;;;;;4982319;28;19940;-72
2024/01/13 13:29:59;;;;;;;;;;;4.70;99.90;;;;;;4964803;28;19931;-73
2024/01/13 13:32:25;;;;;;;;;;;4.60;99.90;;;;;;4983921;28;19953;-72
2024/01/13 13:34:51;;;;;;;;;;;4.70;99.90;;;;;;4982641;28;20891;-72
2024/01/13 13:37:17;;;;;;;;;;;4.70;99.90;;;;;;5002373;28;19924;-73
2024/01/13 13:39:43;;;;;;;;;;;4.70;99.90;;;;;;4982003;28;20568;-73
2024/01/13 13:42:09;;;;;;;;;;;4.70;99.90;;;;;;4987903;28;19925;-73
2024/01/13 13:44:37;;;;;;;;;;;4.70;99.90;;;;;;4985601;28;20055;-73
2024/01/13 13:47:04;;;;;;;;;;;4.90;99.90;;;;;;4961122;28;19925;-73
2024/01/13 13:49:30;;;;;;;;;;;5.40;99.90;;;;;;4980155;28;19936;-73
2024/01/13 13:51:57;;;;;;;;;;;5.80;99.90;;;;;;5010190;28;19932;-73
2024/01/13 13:54:23;;;;;;;;;;;6.00;99.90;;;;;;4957698;28;20514;-73
2024/01/13 13:56:49;;;;;;;;;;;7.30;99.90;;;;;;4992754;28;19932;-73
2024/01/13 13:59:15;;;;;;;;;;;7.30;99.90;;;;;;4954895;28;19980;-72
2024/01/13 14:01:44;;;;;;;;;;;7.40;99.90;;;;;;4985501;28;19925;-73
2024/01/13 14:04:10;;;;;;;;;;;6.60;99.90;;;;;;4958241;28;19932;-74
2024/01/13 14:06:37;;;;;;;;;;;6.00;99.90;;;;;;4979125;28;20410;-73
2024/01/13 14:09:03;;;;;;;;;;;5.60;99.90;;;;;;4975866;28;19936;-73
2024/01/13 14:11:31;;;;;;;;;;;5.40;99.90;;;;;;5009703;28;19936;-73
2024/01/13 14:13:57;;;;;;;;;;;5.30;99.90;;;;;;4976102;28;19931;-72
2024/01/13 14:16:23;;;;;;;;;;;5.30;99.90;;;;;;5012024;28;19924;-72
2024/01/13 14:18:50;;;;;;;;;;;5.20;99.90;;;;;;4972166;28;19972;-72
2024/01/13 14:21:16;;;;;;;;;;;5.20;99.90;;;;;;5011788;28;19924;-73
2024/01/13 14:23:43;;;;;;;;;;;5.20;99.90;;;;;;4991455;28;19932;-71
2024/01/13 14:26:12;;;;;;;;;;;5.20;99.90;;;;;;5016318;28;20927;-73